Terminal Aerodrome Forecast
Issued by NWS Lake Charles, LA

Home | Current Version | Previous Version | Text Only | Print | Product List | Glossary On
Versions: 1 2 3 4 5 6 7 8 9 10 11 12 13 14 15
000
FTUS44 KLCH 251700 RRA
TAFARA
TAF
KARA 251741Z 2518/2618 23007KT P6SM VCSH SCT030
     FM260000 VRB03KT P6SM SKC
     FM261400 24007KT P6SM SCT025=

USA.gov is the U.S. government's official web portal to all federal, state and local government web resources and services.